LICT/TPS METAR and TAF weather

Enter ICAO airport designator
Station Type Date Time Source
LICT METAR 2020/02/24 07:55 UTC NOAA

LICT 240755Z 27005KT 9999 BKN016 14/12 Q1025


Station Type Date Time Source
LICT Decoded METAR 2020/02/24 07:55 UTC NOAA

Trapani / Birgi, Italy (LICT) 37-55N 012-30E 14M
Feb 24, 2020 - 02:55 AM EST / 2020.02.24 0755 UTC
Wind: from the W (270 degrees) at 6 MPH (5 KT):0
Visibility: greater than 7 mile(s):0
Sky conditions: mostly cloudy
Temperature: 57 F (14 C)
Dew Point: 53 F (12 C)
Relative Humidity: 87%
Pressure (altimeter): 30.27 in. Hg (1025 hPa)
ob: LICT 240755Z 27005KT 9999 BKN016 14/12 Q1025
cycle: 8

Station Type Date Time Source
LICT TAF 2019/01/11 09:24 UTC NOAA

TAF TAF LICT 110800Z 1109/1121 33012KT 9999 SCT025

Example: see airport list